Port Saunders, Canada
Current Conditions -  °F | °C
As of 10:00 AM on Saturday 20 Dec 2014 (Local Time) from CWDH Reporting Station
Broken Clouds Broken Clouds  
Wind Chill: 16°   Ceiling: 3100
Heat Index: 22°   Visibility: 9mi
Dew Point: 15°   Wind: 5mph
Humidity: 75%   Direction: 50°NE
Pressure: 30.26"   Gusts: NA
Location:  50.65°N, 57.27°W
Report Text: CWDH 201300Z AUTO 05004KT 9SM BKN031 M06/M09 A3026 RMK SLP248 T10551093 70033 WSI/SWOB
Loading
Personal Weather Stations






























Interactive Weather Map New forecast layout! Learn more

10-Day Weather Forecast

Advertisements
Track Severe Weather on mobile